Maggie Valley, NC (28751)

5:20 PM EDT on July 26, 2016 (GMT -0400)
Laurel Ridge | | Change Station

Elev 3894 ft 35.53 °N, 83.06 °W | Updated 4 minutes ago

Scattered Clouds
Scattered Clouds
73.9 °F
Feels Like 74 °F
N
0.0
Wind Variable Wind from WNW

Today
High -- | Low -- °F
--% Chance of Precip.
Yesterday
High -- | Low -- °F
Precip. -- in
Pressure 30.08 in
Visibility 10.0 miles
Clouds Scattered Clouds 7000 ft
Scattered Clouds 9500 ft
Heat Index 74 °F
Dew Point 68 °F
Humidity 81%
Rainfall 0.00 in
Snow Depth Not available.
6:36 AM 8:40 PM
Waning Gibbous, 51% visible
METAR K1A5 262100Z AUTO 00000KT 10SM SCT070 SCT095 29/21 A3008 RMK AO2 T02870210
Pressure 30.08 in
Visibility 10.0 miles
Clouds Scattered Clouds 7000 ft
Scattered Clouds 9500 ft
Heat Index 74 °F
Dew Point 68 °F
Humidity 81%
Rainfall 0.00 in
Snow Depth Not available.
6:36 AM 8:40 PM
Waning Gibbous, 51% visible
METAR K1A5 262100Z AUTO 00000KT 10SM SCT070 SCT095 29/21 A3008 RMK AO2 T02870210

10-Day Weather Forecast

Almanac

Astronomy

Jul. 26, 2016 Rise Set
Actual Time
Civil Twilight
Nautical Twilight
Astronomical Twilight
Moon
Length of Visible Light
Length of Day
Tomorrow will be .
, % of the Moon is Illuminated

Today's Extremes

State Highs State Lows

Community

WunderPhotos

Upload Photos

1,927,688 photos uploaded!

WunderBlog® & News

Nearby

Air Quality

  Air Quality AQ Index Pollutant
Not available.

Snow Depth

Station Depth Elevation

Earthquake Activity

City Distance Mag. Time & Date
Minimum magnitude displayed is 2.5.

Coastal Water Temperatures

Place Temperature

Stations

Nearby Weather Stations

Station Location Temp. Windchill Dew Point Humidity Wind Precip. Elev Updated Type
                   

Watches & Warnings

There are currently no watches in effect.